Lyon Bron, France

2:35 AM CEST on April 28, 2015 (GMT +0200)
IRHNEALP38 | | Change Station
CLOSE
Current Station
Personal Weather Station
Location: Bron, RHoNE-ALPES
Elevation: 732 ft
Nearby Weather Stations

Elev 732 ft 45.73 °N, 4.92 °E | Updated 16 seconds ago

Overcast
Overcast
48.6 °F
Feels Like 46 °F
N
5.6
Wind Variable Wind from WNW
Gusts 5.6 mph

Today
High -- | Low -- °F
--% Chance of Precip.
Yesterday
High -- | Low -- °F
Precip. -- in
6:33 AM 8:43 PM
Waxing Gibbous, 69% visible
Pressure 29.89 in
Visibility 6.2 miles
Clouds Overcast 4300 ft
Windchill 46 °F
Dew Point 48 °F
Humidity 98%
Rainfall 0.25 in
Snow Depth Not available.
UV 0 out of 12
Pollen Not available.
Air Quality Not available.
Flu Activity Not available.
METAR LFLY 280030Z AUTO 34009KT 9999 OVC043 10/06 Q1012

More Conditions Fewer Conditions

Pressure 29.89 in
Visibility 6.2 miles
Clouds Overcast 4300 ft
Windchill 46 °F
Dew Point 48 °F
Humidity 98%
Rainfall 0.25 in
Snow Depth Not available.
UV 0 out of 12
Pollen Not available.
Air Quality Not available.
Flu Activity Not available.
METAR LFLY 280030Z AUTO 34009KT 9999 OVC043 10/06 Q1012

More Conditions Fewer Conditions

10-Day Weather Forecast

Almanac

Astronomy

Apr. 28, 2015 Rise Set
Actual Time
Civil Twilight
Nautical Twilight
Astronomical Twilight
Moon
Length of Visible Light
Length of Day
Tomorrow will be .
, % of the Moon is Illuminated

Today's Extremes

Country Highs Country Lows

Community

WunderPhotos

Upload Photos

1,817,496 photos uploaded!

WunderBlogs® & News

Nearby

Air Quality

  Air Quality AQ Index Pollutant
Not available.

Snow Depth

Station Depth Elevation

Earthquake Activity

City Distance Mag. Time & Date
Minimum magnitude displayed is 2.5.

Coastal Water Temperatures

Place Temperature

Stations

Nearby Weather Stations

Station Location Temp. Windchill Dew Point Humidity Wind Precip. Elev Updated Type